Terminal Aerodrome Forecast
Issued by NWS Hastings, NE

Home | Current Version | Previous Version | Text Only | Print | Product List | Glossary On
Versions: 1 2 3 4 5 6 7 8 9 10 11 12 13 14 15 16 17 18 19 20 21
831
FTUS43 KGID 231724
TAFGRI
TAF
KGRI 231724Z 2318/2418 19019G27KT P6SM FEW250
     FM240300 17016G23KT P6SM SCT250 WS015/19050KT
     FM241300 19018G27KT P6SM FEW080 BKN150=

USA.gov is the U.S. government's official web portal to all federal, state and local government web resources and services.